createdAt,value
2019-05-17T00:01:37.650Z,27.73
2019-05-17T00:04:07.216Z,26.48
2019-05-17T00:06:36.918Z,27.58
2019-05-17T00:09:07.402Z,28.12
2019-05-17T00:11:36.815Z,28.45
2019-05-17T00:14:06.302Z,28.00
2019-05-17T00:16:37.360Z,27.75
2019-05-17T00:19:07.465Z,26.70
2019-05-17T00:21:37.063Z,26.27
2019-05-17T00:24:06.675Z,29.40
2019-05-17T00:26:36.262Z,26.02
2019-05-17T00:29:06.830Z,29.18
2019-05-17T00:31:36.975Z,25.92
2019-05-17T00:34:07.236Z,28.73
2019-05-17T00:36:37.532Z,28.20
2019-05-17T00:39:07.415Z,27.48
2019-05-17T00:41:37.473Z,27.67
2019-05-17T00:44:06.449Z,30.50
2019-05-17T00:46:37.159Z,26.25
2019-05-17T00:49:06.532Z,30.00
2019-05-17T00:51:36.885Z,28.42
2019-05-17T00:54:06.774Z,29.57
2019-05-17T00:56:37.225Z,31.15
2019-05-17T00:59:07.465Z,30.52
2019-05-17T01:01:36.514Z,31.12
2019-05-17T01:04:06.912Z,28.67
2019-05-17T01:06:37.434Z,28.75
2019-05-17T01:09:07.756Z,31.62
2019-05-17T01:11:36.631Z,31.60
2019-05-17T01:14:06.844Z,28.47
2019-05-17T01:16:36.742Z,30.02
2019-05-17T01:19:06.815Z,29.30
2019-05-17T01:21:36.737Z,31.68
2019-05-17T01:24:06.848Z,30.82
2019-05-17T01:26:37.410Z,28.42
2019-05-17T01:29:06.749Z,28.73
2019-05-17T01:31:37.312Z,31.25
2019-05-17T01:34:07.288Z,30.15
2019-05-17T01:36:37.054Z,31.48
2019-05-17T01:39:16.951Z,30.68
2019-05-17T01:41:37.244Z,30.37
2019-05-17T01:44:07.487Z,30.40
2019-05-17T01:46:36.995Z,33.35
2019-05-17T01:49:06.927Z,30.25
2019-05-17T01:51:37.094Z,32.05
2019-05-17T01:54:06.861Z,29.85
2019-05-17T01:56:36.994Z,35.55
2019-05-17T01:59:06.780Z,29.63
2019-05-17T02:01:37.146Z,31.12
2019-05-17T02:04:06.640Z,32.33
2019-05-17T02:06:36.630Z,31.25
2019-05-17T02:09:06.398Z,30.55
2019-05-17T02:11:37.065Z,29.95
2019-05-17T02:14:07.001Z,34.53
2019-05-17T02:16:37.658Z,30.17
2019-05-17T02:19:06.747Z,28.77
2019-05-17T02:21:36.731Z,30.12
2019-05-17T02:24:07.943Z,29.05
2019-05-17T02:26:37.435Z,27.65
2019-05-17T02:29:06.588Z,31.07
2019-05-17T02:31:35.864Z,29.40
2019-05-17T02:34:04.890Z,30.35
2019-05-17T02:36:33.779Z,29.55
2019-05-17T02:39:03.704Z,31.27
2019-05-17T02:41:33.305Z,30.20
2019-05-17T02:44:02.844Z,31.15
2019-05-17T02:46:33.863Z,29.60
2019-05-17T02:49:03.148Z,30.52
2019-05-17T02:51:32.674Z,30.50
2019-05-17T02:54:04.255Z,30.70
2019-05-17T02:56:32.812Z,31.77
2019-05-17T02:59:03.676Z,27.37
2019-05-17T03:01:33.460Z,30.85
2019-05-17T03:04:03.846Z,30.17
2019-05-17T03:06:33.230Z,30.25
2019-05-17T03:09:03.365Z,30.48
2019-05-17T03:11:33.281Z,33.42
2019-05-17T03:14:04.093Z,34.50
2019-05-17T03:16:33.830Z,30.00
2019-05-17T03:19:04.132Z,35.55
2019-05-17T03:21:33.889Z,32.88
2019-05-17T03:24:03.651Z,31.82
2019-05-17T03:26:32.915Z,37.90
2019-05-17T03:29:03.245Z,36.85
2019-05-17T03:31:40.783Z,34.98
2019-05-17T03:34:06.819Z,36.35
2019-05-17T03:36:36.452Z,35.80
2019-05-17T03:39:07.496Z,39.73
2019-05-17T03:41:36.458Z,34.92
2019-05-17T03:44:05.410Z,38.45
2019-05-17T03:46:34.281Z,39.00
2019-05-17T03:49:04.011Z,37.65
2019-05-17T03:51:33.511Z,35.78
2019-05-17T03:54:02.861Z,35.35
2019-05-17T03:56:32.926Z,32.83
2019-05-17T03:59:03.825Z,36.15
2019-05-17T04:01:32.919Z,36.83
2019-05-17T04:04:02.911Z,35.98
2019-05-17T04:06:32.955Z,33.75
2019-05-17T04:09:03.760Z,37.67
2019-05-17T04:11:36.253Z,35.45
2019-05-17T04:14:03.498Z,36.77
2019-05-17T04:16:33.929Z,39.20
2019-05-17T04:19:03.337Z,35.10
2019-05-17T04:21:34.229Z,35.78
2019-05-17T04:24:04.859Z,35.48
2019-05-17T04:26:33.944Z,36.38
2019-05-17T04:29:03.516Z,37.00
2019-05-17T04:31:34.633Z,35.63
2019-05-17T04:34:03.357Z,37.25
2019-05-17T04:36:32.444Z,34.92
2019-05-17T04:39:02.503Z,36.20
2019-05-17T04:41:44.698Z,35.70
2019-05-17T04:44:02.833Z,36.55
2019-05-17T04:46:32.668Z,36.33
2019-05-17T04:49:02.883Z,37.63
2019-05-17T04:51:32.534Z,35.90
2019-05-17T04:54:03.210Z,32.98
2019-05-17T04:56:33.415Z,35.28
2019-05-17T04:59:03.570Z,32.67
2019-05-17T05:01:33.558Z,33.78
2019-05-17T05:04:03.782Z,34.53
2019-05-17T05:06:33.317Z,32.28
2019-05-17T05:09:02.886Z,35.68
2019-05-17T05:11:32.786Z,34.90
2019-05-17T05:14:02.717Z,35.28
2019-05-17T05:16:32.337Z,35.28
2019-05-17T05:19:03.006Z,34.92
2019-05-17T05:21:35.452Z,35.88
2019-05-17T05:24:05.872Z,34.45
2019-05-17T05:26:34.786Z,31.17
2019-05-17T05:29:04.518Z,34.65
2019-05-17T05:31:34.054Z,31.33
2019-05-17T05:34:03.018Z,34.25
2019-05-17T05:36:32.902Z,31.48
2019-05-17T05:39:02.343Z,36.35
2019-05-17T05:41:32.024Z,33.23
2019-05-17T05:44:01.919Z,31.75
2019-05-17T05:46:31.787Z,31.95
2019-05-17T05:49:01.715Z,29.95
2019-05-17T05:51:32.096Z,30.82
2019-05-17T05:54:01.754Z,32.58
2019-05-17T05:56:32.642Z,27.90
2019-05-17T05:59:02.984Z,29.42
2019-05-17T06:01:32.708Z,27.52
2019-05-17T16:59:09.199Z,1.50
2019-05-17T17:01:38.640Z,1.90
2019-05-17T17:04:07.744Z,1.50
2019-05-17T17:06:37.434Z,1.90
2019-05-17T17:09:07.173Z,2.37
2019-05-17T17:11:36.123Z,1.60
2019-05-17T17:14:05.428Z,2.30
2019-05-17T17:16:34.439Z,1.50
2019-05-17T17:19:03.381Z,1.67
2019-05-17T17:21:32.378Z,1.80
2019-05-17T17:24:01.317Z,2.47
2019-05-17T17:26:30.426Z,2.25
2019-05-17T17:28:59.296Z,2.92
2019-05-17T17:31:28.490Z,1.40
2019-05-17T17:33:59.004Z,1.07
2019-05-17T17:36:27.903Z,1.82
2019-05-17T17:38:56.826Z,1.70
2019-05-17T17:41:26.636Z,3.47
2019-05-17T17:43:58.381Z,1.90
2019-05-17T17:46:26.397Z,1.65
2019-05-17T17:48:55.345Z,1.82
2019-05-17T17:51:24.375Z,1.57
2019-05-17T17:53:53.353Z,1.27
2019-05-17T17:56:22.238Z,3.52
2019-05-17T17:58:51.172Z,1.57
2019-05-17T18:01:20.160Z,1.95
2019-05-17T18:03:49.098Z,1.60
2019-05-17T18:06:17.983Z,1.60
2019-05-17T18:08:46.926Z,1.80
2019-05-17T18:11:15.834Z,1.45
2019-05-17T18:13:44.843Z,3.22
2019-05-17T18:16:13.756Z,1.67
2019-05-17T18:18:42.987Z,2.70
2019-05-17T18:21:11.988Z,1.55
2019-05-17T18:23:40.934Z,2.00
2019-05-17T18:26:09.842Z,1.67
2019-05-17T18:28:38.858Z,1.90
2019-05-17T18:31:07.954Z,2.45
2019-05-17T18:33:36.898Z,3.60
2019-05-17T18:36:05.797Z,2.40
2019-05-17T18:38:36.643Z,1.40
2019-05-17T18:41:05.539Z,1.80
2019-05-17T18:43:34.469Z,2.20
2019-05-17T18:46:03.362Z,1.80
2019-05-17T18:48:32.403Z,1.60
2019-05-17T18:51:01.380Z,4.15
2019-05-17T18:53:30.321Z,2.30
2019-05-17T18:55:59.251Z,2.12
2019-05-17T18:58:28.320Z,1.70
2019-05-17T19:00:57.240Z,1.52
2019-05-17T19:03:26.178Z,2.47
2019-05-17T19:05:55.081Z,3.77
2019-05-17T19:08:23.971Z,1.60
2019-05-17T19:10:52.946Z,1.70
2019-05-17T19:13:21.819Z,1.70
2019-05-17T19:15:51.040Z,1.72
2019-05-17T19:18:19.954Z,1.70
2019-05-17T19:20:49.260Z,2.12
2019-05-17T19:23:18.909Z,1.67
2019-05-17T19:25:48.714Z,1.82
2019-05-17T19:28:18.312Z,2.15
2019-05-17T19:30:47.522Z,2.10
2019-05-17T19:33:17.210Z,3.52
2019-05-17T19:35:46.617Z,3.15
2019-05-17T19:38:15.914Z,1.80
2019-05-17T19:40:45.477Z,2.83
2019-05-17T19:43:14.406Z,2.52
2019-05-17T19:45:43.701Z,2.15
2019-05-17T19:48:13.105Z,2.00
2019-05-17T19:50:42.070Z,3.27
2019-05-17T19:53:11.116Z,2.85
2019-05-17T19:55:40.002Z,3.10
2019-05-17T19:58:08.948Z,2.52
2019-05-17T20:00:37.839Z,3.22
2019-05-17T20:03:06.781Z,3.15
2019-05-17T20:05:39.924Z,3.58
2019-05-17T20:08:08.923Z,3.65
2019-05-17T20:10:38.882Z,3.80
2019-05-17T20:13:07.909Z,3.65
2019-05-17T20:15:38.303Z,3.37
2019-05-17T20:18:09.820Z,4.28
2019-05-17T20:20:38.821Z,3.10
2019-05-17T20:23:07.797Z,4.10
2019-05-17T20:25:37.251Z,4.05
2019-05-17T20:28:06.481Z,5.35
2019-05-17T20:30:35.449Z,4.58
2019-05-17T20:33:12.534Z,3.35
2019-05-17T20:35:41.976Z,3.37
2019-05-17T20:38:13.629Z,5.47
2019-05-17T20:40:42.982Z,3.35
2019-05-17T20:43:16.976Z,4.28
2019-05-17T20:45:47.163Z,3.25
2019-05-17T20:48:17.412Z,3.47
2019-05-17T20:50:46.473Z,4.37
2019-05-17T20:53:19.290Z,3.50
2019-05-17T20:55:50.224Z,3.10
2019-05-17T20:58:27.058Z,3.75
2019-05-17T21:00:53.010Z,3.40
2019-05-17T21:03:22.250Z,4.70
2019-05-17T21:05:51.592Z,3.35
2019-05-17T21:08:21.487Z,4.15
2019-05-17T21:10:50.848Z,3.22
2019-05-17T21:13:27.052Z,3.50
2019-05-17T21:15:57.537Z,3.45
2019-05-17T21:18:26.824Z,3.72
2019-05-17T21:20:57.333Z,4.50
2019-05-17T21:23:27.501Z,3.90
2019-05-17T21:25:59.433Z,4.72
2019-05-17T21:28:28.274Z,3.37
2019-05-17T21:30:57.169Z,2.77
2019-05-17T21:33:26.112Z,3.27
2019-05-17T21:35:55.025Z,3.17
2019-05-17T21:38:23.961Z,3.30
2019-05-17T21:40:52.850Z,4.75
2019-05-17T21:43:21.781Z,5.08
2019-05-17T21:46:02.900Z,3.42
2019-05-17T21:48:21.305Z,7.37
2019-05-17T21:50:50.237Z,3.30
2019-05-17T21:53:19.128Z,2.92
2019-05-17T21:55:48.042Z,3.10
2019-05-17T21:58:20.361Z,4.40
2019-05-17T22:00:52.042Z,3.77
2019-05-17T22:03:20.935Z,4.58
2019-05-17T22:05:49.885Z,3.27
2019-05-17T22:08:18.770Z,3.52
2019-05-17T22:10:47.708Z,3.77
2019-05-17T22:13:16.605Z,4.15
2019-05-17T22:15:46.737Z,4.20
2019-05-17T22:18:18.586Z,6.75
2019-05-17T22:20:46.408Z,4.35
2019-05-17T22:23:15.295Z,5.50
2019-05-17T22:25:44.227Z,4.28
2019-05-17T22:28:13.143Z,4.22
2019-05-17T22:30:42.059Z,3.95
2019-05-17T22:33:11.005Z,4.85
2019-05-17T22:35:39.895Z,4.22
2019-05-17T22:38:08.836Z,5.22
2019-05-17T22:40:37.724Z,6.22
2019-05-17T22:43:06.672Z,6.45
2019-05-17T22:45:35.569Z,4.33
2019-05-17T22:48:04.511Z,4.30
2019-05-17T22:50:33.398Z,4.95
2019-05-17T22:53:02.345Z,5.62
2019-05-17T22:55:31.222Z,4.80
2019-05-17T22:58:00.151Z,6.30
2019-05-17T23:00:29.047Z,5.12
2019-05-17T23:02:58.008Z,5.00
2019-05-17T23:05:26.894Z,5.15
2019-05-17T23:07:55.825Z,4.80
2019-05-17T23:10:24.762Z,5.30
2019-05-17T23:12:53.655Z,4.75
2019-05-17T23:15:22.591Z,5.03
2019-05-17T23:17:51.492Z,5.50
2019-05-17T23:20:20.469Z,5.10
2019-05-17T23:22:49.368Z,5.70
2019-05-17T23:25:18.301Z,8.28
2019-05-17T23:27:47.202Z,5.45
2019-05-17T23:30:16.241Z,5.65
2019-05-17T23:32:45.131Z,7.17
2019-05-17T23:35:14.085Z,6.97
2019-05-17T23:37:42.987Z,7.00
2019-05-17T23:40:12.149Z,7.70
2019-05-17T23:42:41.016Z,6.92
2019-05-17T23:45:10.866Z,6.87
2019-05-17T23:47:39.768Z,6.37
2019-05-17T23:50:08.901Z,5.95
2019-05-17T23:52:37.785Z,6.42
2019-05-17T23:55:07.175Z,5.78
2019-05-17T23:57:36.126Z,5.33
